createdAt,value
2023-01-20T00:01:22.722Z,21.43
2023-01-20T00:03:50.776Z,22.50
2023-01-20T00:06:18.646Z,21.90
2023-01-20T00:08:46.513Z,22.97
2023-01-20T00:11:14.409Z,24.03
2023-01-20T00:13:42.522Z,25.13
2023-01-20T00:16:12.608Z,25.33
2023-01-20T00:18:41.328Z,25.63
2023-01-20T00:21:10.978Z,26.07
2023-01-20T00:23:39.446Z,25.77
2023-01-20T00:26:08.371Z,25.80
2023-01-20T00:28:36.633Z,26.50
2023-01-20T00:31:17.176Z,27.03
2023-01-20T00:33:45.465Z,27.63
2023-01-20T00:36:14.454Z,27.40
2023-01-20T00:38:42.283Z,28.63
2023-01-20T00:41:10.579Z,28.37
2023-01-20T00:43:38.501Z,28.33
2023-01-20T00:46:07.491Z,28.07
2023-01-20T00:48:37.022Z,26.23
2023-01-20T00:51:06.137Z,27.80
2023-01-20T00:53:33.981Z,27.03
2023-01-20T00:56:02.224Z,26.03
2023-01-20T00:58:30.130Z,27.13
2023-01-20T01:00:58.784Z,25.60
2023-01-20T01:03:27.971Z,26.47
2023-01-20T01:06:06.885Z,22.83
2023-01-20T01:08:35.308Z,24.60
2023-01-20T01:11:03.351Z,24.73
2023-01-20T01:13:31.224Z,25.80
2023-01-20T01:15:59.234Z,24.30
2023-01-20T01:18:27.023Z,26.07
2023-01-20T01:20:54.821Z,25.23
2023-01-20T01:23:24.029Z,24.57
2023-01-20T01:25:51.775Z,25.27
2023-01-20T01:28:19.527Z,24.90
2023-01-20T01:30:47.433Z,24.90
2023-01-20T01:33:15.178Z,26.93
2023-01-20T01:35:43.147Z,25.73
2023-01-20T01:38:10.891Z,26.57
2023-01-20T01:40:40.004Z,26.03
2023-01-20T01:43:21.842Z,26.60
2023-01-20T01:45:49.617Z,25.77
2023-01-20T01:48:19.357Z,26.33
2023-01-20T01:50:54.126Z,27.13
2023-01-20T01:53:22.405Z,27.07
2023-01-20T01:55:55.327Z,27.53
2023-01-20T01:58:28.382Z,28.20
2023-01-20T02:00:56.300Z,28.63
2023-01-20T02:03:24.511Z,28.57
2023-01-20T02:05:53.938Z,28.13
2023-01-20T02:08:21.934Z,30.53
2023-01-20T02:10:51.033Z,28.17
2023-01-20T02:13:18.832Z,28.97
2023-01-20T02:15:53.121Z,28.00
2023-01-20T02:18:37.746Z,27.30
2023-01-20T02:21:45.010Z,26.90
2023-01-20T02:24:47.552Z,28.27
2023-01-20T02:27:23.942Z,27.70
2023-01-20T02:30:17.033Z,27.17
2023-01-20T02:32:56.199Z,28.50
2023-01-20T02:35:30.678Z,25.30
2023-01-20T02:38:11.901Z,25.10
2023-01-20T02:40:48.939Z,25.70
2023-01-20T02:43:22.033Z,24.80
2023-01-20T02:45:57.646Z,26.07
2023-01-20T02:48:35.713Z,27.30
2023-01-20T02:51:10.291Z,27.10
2023-01-20T02:53:44.641Z,27.60
2023-01-20T02:56:14.055Z,27.93
2023-01-20T02:58:46.551Z,28.03
2023-01-20T03:01:18.514Z,28.73
2023-01-20T03:03:50.894Z,29.43
2023-01-20T03:06:22.427Z,27.57
2023-01-20T03:08:53.553Z,26.73
2023-01-20T03:11:21.458Z,26.67
2023-01-20T03:13:54.241Z,23.50
2023-01-20T03:16:24.665Z,24.53
2023-01-20T03:18:55.193Z,23.37
2023-01-20T03:21:23.398Z,22.87
2023-01-20T03:23:54.266Z,22.77
2023-01-20T03:26:23.712Z,23.33
2023-01-20T03:28:51.585Z,22.27
2023-01-20T03:31:23.070Z,23.73
2023-01-20T03:33:56.138Z,23.70
2023-01-20T03:36:26.821Z,23.90
2023-01-20T03:38:57.010Z,24.80
2023-01-20T03:41:31.287Z,24.23
2023-01-20T03:44:08.107Z,23.87
2023-01-20T03:46:44.007Z,23.73
2023-01-20T03:49:20.519Z,23.43
2023-01-20T03:51:57.933Z,23.70
2023-01-20T03:54:29.480Z,24.37
2023-01-20T03:57:04.134Z,24.23
2023-01-20T03:59:35.201Z,24.53
2023-01-20T04:02:06.257Z,23.70
2023-01-20T04:04:38.534Z,23.67
2023-01-20T04:07:07.419Z,24.30
2023-01-20T04:09:40.435Z,23.37
2023-01-20T04:12:08.614Z,22.73
2023-01-20T04:14:36.814Z,24.50
2023-01-20T04:17:07.268Z,24.87
2023-01-20T04:19:36.458Z,23.97
2023-01-20T04:22:08.788Z,23.97
2023-01-20T04:24:43.112Z,22.17
2023-01-20T04:27:10.909Z,23.77
2023-01-20T04:29:41.375Z,26.70
2023-01-20T04:32:12.292Z,24.33
2023-01-20T04:34:41.475Z,22.03
2023-01-20T04:37:09.222Z,22.07
2023-01-20T04:39:36.996Z,22.13
2023-01-20T04:42:05.017Z,22.77
2023-01-20T04:44:32.783Z,19.90
2023-01-20T04:47:00.595Z,19.50
2023-01-20T04:49:28.550Z,20.37
2023-01-20T04:51:57.669Z,20.03
2023-01-20T04:54:25.435Z,20.37
2023-01-20T04:56:53.181Z,18.67
2023-01-20T04:59:21.322Z,19.43
2023-01-20T05:01:49.127Z,18.10
2023-01-20T05:04:16.940Z,20.50
2023-01-20T05:06:44.967Z,19.93
2023-01-20T05:09:16.297Z,20.40
2023-01-20T05:11:44.234Z,20.07
2023-01-20T05:14:12.655Z,19.47
2023-01-20T05:16:40.677Z,19.37
2023-01-20T05:19:08.445Z,17.57
2023-01-20T05:21:36.339Z,18.27
2023-01-20T05:24:04.300Z,19.43
2023-01-20T05:26:33.494Z,19.57
2023-01-20T05:29:02.655Z,18.17
2023-01-20T05:31:30.465Z,19.27
2023-01-20T05:33:59.066Z,19.53
2023-01-20T05:36:28.273Z,18.87
2023-01-20T05:38:56.122Z,20.23
2023-01-20T05:41:23.897Z,20.97
2023-01-20T05:43:55.636Z,20.30
2023-01-20T05:46:23.527Z,19.40
2023-01-20T05:48:51.399Z,19.63
2023-01-20T05:51:19.407Z,19.13
2023-01-20T05:53:47.169Z,19.10
2023-01-20T05:56:16.132Z,19.87
2023-01-20T05:58:44.052Z,19.37
2023-01-20T06:01:15.381Z,19.97
2023-01-20T06:03:43.684Z,18.73
2023-01-20T06:06:15.617Z,19.10
2023-01-20T06:08:43.709Z,18.70
2023-01-20T06:11:12.163Z,18.53
2023-01-20T06:13:40.304Z,19.23
2023-01-20T06:16:08.525Z,17.50
2023-01-20T06:18:37.794Z,17.53
2023-01-20T06:21:05.775Z,15.50
2023-01-20T06:23:33.629Z,14.90
2023-01-20T06:26:02.709Z,14.00
2023-01-20T06:28:30.890Z,12.27
2023-01-20T06:31:03.313Z,13.00
2023-01-20T06:33:31.447Z,12.40
2023-01-20T06:36:00.773Z,12.30
2023-01-20T06:38:31.102Z,12.07
2023-01-20T06:40:59.692Z,12.27
2023-01-20T06:43:29.226Z,11.90
2023-01-20T06:46:01.073Z,11.93
2023-01-20T06:48:29.386Z,11.90
2023-01-20T06:51:03.156Z,11.73
2023-01-20T06:53:31.050Z,12.03
2023-01-20T06:55:59.897Z,12.77
2023-01-20T06:58:30.123Z,12.57
2023-01-20T07:00:58.801Z,12.47
2023-01-20T07:03:26.597Z,12.90
2023-01-20T07:05:58.570Z,13.47
2023-01-20T07:08:28.006Z,14.37
2023-01-20T07:10:56.895Z,14.07
2023-01-20T07:13:24.733Z,15.17
2023-01-20T07:15:52.640Z,16.40
2023-01-20T07:18:20.573Z,14.80
2023-01-20T07:20:48.378Z,15.53
2023-01-20T07:23:16.192Z,15.77
2023-01-20T07:25:45.316Z,15.83
2023-01-20T07:28:13.087Z,16.73
2023-01-20T07:30:40.901Z,17.77
2023-01-20T07:33:08.680Z,16.73
2023-01-20T07:35:36.624Z,17.17
2023-01-20T07:38:04.512Z,16.57
2023-01-20T07:40:32.387Z,17.30
2023-01-20T07:43:04.642Z,17.63
2023-01-20T07:45:32.462Z,17.00
2023-01-20T07:48:01.856Z,16.77
2023-01-20T07:50:29.809Z,16.53
2023-01-20T07:52:57.676Z,17.00
2023-01-20T07:55:25.502Z,17.37
2023-01-20T07:57:53.276Z,18.27
2023-01-20T08:00:23.102Z,17.60
2023-01-20T08:02:51.057Z,17.70
2023-01-20T08:05:18.896Z,17.50
2023-01-20T08:07:51.350Z,17.23
2023-01-20T08:10:19.444Z,18.37
2023-01-20T08:12:47.266Z,17.83
2023-01-20T08:15:15.146Z,16.87
2023-01-20T08:17:44.429Z,17.67
2023-01-20T08:20:13.039Z,18.73
2023-01-20T08:22:40.807Z,17.10
2023-01-20T08:25:09.475Z,17.97
2023-01-20T08:27:37.230Z,17.90
2023-01-20T08:30:05.937Z,19.27
2023-01-20T08:32:33.732Z,18.30
2023-01-20T08:35:02.854Z,17.47
2023-01-20T08:37:30.646Z,17.83
2023-01-20T08:39:58.517Z,18.40
2023-01-20T08:42:26.411Z,19.23
2023-01-20T08:44:54.225Z,18.60
2023-01-20T08:47:22.069Z,19.80
2023-01-20T08:49:49.862Z,18.27
2023-01-20T08:52:19.037Z,19.40
2023-01-20T08:54:46.870Z,18.60
2023-01-20T08:57:15.024Z,19.17
2023-01-20T08:59:42.885Z,18.40
2023-01-20T09:02:11.117Z,17.57
2023-01-20T09:04:39.006Z,17.97
2023-01-20T09:07:07.772Z,17.90
2023-01-20T09:09:37.458Z,17.10
2023-01-20T09:12:05.834Z,16.73
2023-01-20T09:14:33.782Z,16.60
2023-01-20T09:17:02.759Z,17.00
2023-01-20T09:19:30.844Z,16.10
2023-01-20T09:21:58.707Z,16.30
2023-01-20T09:24:26.542Z,15.10
2023-01-20T09:26:56.807Z,15.00
2023-01-20T09:29:24.740Z,14.20
2023-01-20T09:31:58.129Z,15.57
2023-01-20T09:34:27.451Z,14.33
2023-01-20T09:36:56.972Z,12.40
2023-01-20T09:39:42.868Z,12.30
2023-01-20T09:42:42.329Z,12.07
2023-01-20T09:45:24.608Z,11.67
2023-01-20T09:47:58.311Z,12.37
2023-01-20T09:50:50.829Z,8.60
2023-01-20T09:53:51.871Z,10.10
2023-01-20T09:56:23.236Z,9.60
2023-01-20T09:58:59.175Z,8.13
2023-01-20T10:01:32.708Z,9.40
2023-01-20T10:04:06.368Z,8.73
2023-01-20T10:06:38.582Z,7.97
2023-01-20T10:09:17.260Z,8.33
2023-01-20T10:11:47.414Z,8.87
2023-01-20T10:14:22.741Z,8.90
2023-01-20T10:16:55.353Z,8.60
2023-01-20T10:19:30.961Z,8.97
2023-01-20T10:22:08.367Z,8.10
2023-01-20T10:24:41.455Z,8.90
2023-01-20T10:27:09.246Z,7.93
2023-01-20T10:29:42.092Z,7.47
2023-01-20T10:32:16.866Z,8.50
2023-01-20T10:34:47.837Z,8.80
2023-01-20T10:37:16.345Z,8.77
2023-01-20T10:39:51.038Z,11.13
2023-01-20T10:42:20.011Z,8.20
2023-01-20T10:44:52.090Z,9.27
2023-01-20T10:47:26.511Z,10.37
2023-01-20T10:50:31.688Z,8.57
2023-01-20T10:53:13.543Z,6.97
2023-01-20T10:55:57.172Z,7.07
2023-01-20T10:58:29.067Z,8.50
2023-01-20T11:01:00.993Z,8.93
2023-01-20T11:03:32.387Z,7.90
2023-01-20T11:06:00.150Z,10.00
2023-01-20T11:08:29.766Z,8.70
2023-01-20T11:10:59.783Z,7.90
2023-01-20T11:13:27.559Z,7.33
2023-01-20T11:16:00.146Z,8.20
2023-01-20T11:18:31.141Z,6.73
2023-01-20T11:21:01.805Z,6.37
2023-01-20T11:23:37.500Z,5.47
2023-01-20T11:26:13.715Z,6.13
2023-01-20T11:28:54.752Z,5.67
2023-01-20T11:31:36.526Z,5.90
2023-01-20T11:34:21.637Z,5.87
2023-01-20T11:36:49.719Z,5.53
2023-01-20T11:39:29.003Z,5.30
2023-01-20T11:42:16.459Z,5.63
2023-01-20T11:44:45.006Z,6.10
2023-01-20T11:47:33.081Z,6.10
2023-01-20T11:50:34.747Z,5.67
2023-01-20T11:53:20.916Z,5.60
2023-01-20T11:55:52.499Z,4.97
2023-01-20T11:58:22.908Z,5.37
2023-01-20T12:00:52.127Z,5.70
2023-01-20T12:03:30.505Z,5.00
2023-01-20T12:06:04.127Z,4.37
2023-01-20T12:08:41.574Z,4.77
2023-01-20T12:11:12.762Z,5.00
2023-01-20T12:13:59.705Z,4.50
2023-01-20T12:16:30.942Z,5.00
2023-01-20T12:19:06.631Z,4.87
2023-01-20T12:21:41.054Z,5.40
2023-01-20T12:24:16.804Z,5.23
2023-01-20T12:26:44.706Z,5.30
2023-01-20T12:29:21.323Z,4.20
2023-01-20T12:31:49.910Z,4.33
2023-01-20T12:34:28.163Z,4.00
2023-01-20T12:37:13.535Z,4.27
2023-01-20T12:40:04.195Z,4.40
2023-01-20T12:43:01.130Z,4.33
2023-01-20T12:45:42.456Z,4.63
2023-01-20T12:48:26.779Z,6.00
2023-01-20T12:51:12.432Z,4.30
2023-01-20T12:53:56.194Z,5.03
2023-01-20T12:56:35.397Z,4.97
2023-01-20T12:59:15.149Z,3.97
2023-01-20T13:01:54.871Z,3.63
2023-01-20T13:04:58.112Z,4.03
2023-01-20T13:07:48.206Z,3.90
2023-01-20T13:10:26.592Z,5.07
2023-01-20T13:13:01.294Z,4.60
2023-01-20T13:15:31.424Z,4.30
2023-01-20T13:18:24.422Z,4.30
2023-01-20T13:20:53.978Z,4.73
2023-01-20T13:23:26.470Z,3.90
2023-01-20T13:25:55.413Z,4.43
2023-01-20T13:28:26.823Z,4.50
2023-01-20T13:30:57.260Z,5.03
2023-01-20T13:33:33.932Z,5.00
2023-01-20T13:36:02.644Z,4.67
2023-01-20T13:38:35.273Z,4.67
2023-01-20T13:41:06.031Z,4.90
2023-01-20T13:43:35.911Z,5.20
2023-01-20T13:46:36.910Z,4.67
2023-01-20T13:49:16.578Z,4.10
2023-01-20T13:51:46.817Z,4.20
2023-01-20T13:54:38.481Z,4.57
2023-01-20T13:57:47.225Z,4.17
2023-01-20T14:00:17.710Z,5.07
2023-01-20T14:02:46.955Z,6.10
2023-01-20T14:05:27.604Z,5.83
2023-01-20T14:07:55.734Z,5.10
2023-01-20T14:10:25.376Z,4.37
2023-01-20T14:12:53.169Z,6.70
2023-01-20T14:15:40.027Z,8.57
2023-01-20T14:18:19.609Z,4.43
2023-01-20T14:21:03.607Z,4.37
2023-01-20T14:23:37.570Z,5.07
2023-01-20T14:26:13.275Z,5.07
2023-01-20T14:28:49.066Z,5.40
2023-01-20T14:31:24.167Z,4.20
2023-01-20T14:33:57.906Z,4.60
2023-01-20T14:36:27.545Z,8.13
2023-01-20T14:38:58.680Z,6.13
2023-01-20T14:41:31.341Z,5.97
2023-01-20T14:44:00.389Z,5.33
2023-01-20T14:46:29.579Z,5.07
2023-01-20T14:48:58.016Z,6.67
2023-01-20T14:51:26.222Z,6.70
2023-01-20T14:54:29.231Z,9.47
2023-01-20T14:56:59.415Z,11.67
2023-01-20T14:59:27.640Z,6.33
2023-01-20T15:01:57.607Z,7.80
2023-01-20T15:04:25.537Z,6.63
2023-01-20T15:06:55.311Z,6.03
2023-01-20T15:09:28.893Z,8.67
2023-01-20T15:12:42.710Z,6.90
2023-01-20T15:15:31.185Z,6.20
2023-01-20T15:18:23.001Z,6.43
2023-01-20T15:21:00.892Z,7.40
2023-01-20T15:23:38.193Z,8.83
2023-01-20T15:26:10.913Z,6.10
2023-01-20T15:28:43.776Z,9.67
2023-01-20T15:31:16.971Z,7.17
2023-01-20T15:33:45.550Z,9.23
2023-01-20T15:36:22.028Z,9.77
2023-01-20T15:38:50.507Z,10.63
2023-01-20T15:41:18.391Z,8.83
2023-01-20T15:43:46.771Z,9.83
2023-01-20T15:46:18.156Z,7.90
2023-01-20T15:48:46.973Z,7.70
2023-01-20T15:51:16.372Z,7.07
2023-01-20T15:53:44.679Z,7.20
2023-01-20T15:56:19.822Z,6.97
2023-01-20T15:58:48.741Z,7.90
2023-01-20T16:01:20.532Z,7.33
2023-01-20T16:03:48.419Z,7.37
2023-01-20T16:06:17.749Z,8.13
2023-01-20T16:08:47.564Z,7.77
2023-01-20T16:11:15.968Z,7.10
2023-01-20T16:13:44.096Z,7.43
2023-01-20T16:16:14.691Z,7.37
2023-01-20T16:18:44.038Z,8.00
2023-01-20T16:21:12.522Z,8.30
2023-01-20T16:23:40.432Z,7.60
2023-01-20T16:26:20.936Z,8.60
2023-01-20T16:28:48.820Z,8.70
2023-01-20T16:31:17.048Z,8.13
2023-01-20T16:33:46.489Z,7.97
2023-01-20T16:36:17.021Z,7.57
2023-01-20T16:38:45.637Z,8.30
2023-01-20T16:41:16.652Z,8.37
2023-01-20T16:43:44.728Z,8.30
2023-01-20T16:46:15.221Z,8.10
2023-01-20T16:48:43.401Z,8.70
2023-01-20T16:51:13.984Z,9.23
2023-01-20T16:53:42.139Z,7.77
2023-01-20T16:56:15.128Z,8.37
2023-01-20T16:58:43.109Z,9.00
2023-01-20T17:01:13.111Z,8.47
2023-01-20T17:03:42.015Z,9.07
2023-01-20T17:06:12.907Z,8.57
2023-01-20T17:08:40.960Z,8.83
2023-01-20T17:11:08.881Z,8.27
2023-01-20T17:13:36.738Z,9.50
2023-01-20T17:16:05.755Z,8.90
2023-01-20T17:18:33.781Z,9.17
2023-01-20T17:21:05.386Z,10.00
2023-01-20T17:23:35.194Z,9.77
2023-01-20T17:26:03.202Z,10.90
2023-01-20T17:28:31.142Z,10.57
2023-01-20T17:31:02.294Z,12.33
2023-01-20T17:33:30.393Z,14.20
2023-01-20T17:35:58.605Z,13.20
2023-01-20T17:38:26.470Z,13.87
2023-01-20T17:40:55.999Z,14.50
2023-01-20T17:43:23.840Z,13.33
2023-01-20T17:45:51.726Z,15.17
2023-01-20T17:48:19.616Z,15.50
2023-01-20T17:50:47.501Z,15.33
2023-01-20T17:53:15.255Z,16.23
2023-01-20T17:55:43.123Z,14.50
2023-01-20T17:58:12.339Z,13.80
2023-01-20T18:00:40.071Z,14.77
2023-01-20T18:03:07.892Z,14.37
2023-01-20T18:05:36.183Z,14.10
2023-01-20T18:08:04.103Z,17.03
2023-01-20T18:10:31.884Z,13.33
2023-01-20T18:12:59.687Z,13.37
2023-01-20T18:15:29.084Z,13.83
2023-01-20T18:17:56.952Z,13.80
2023-01-20T18:20:24.801Z,14.17
2023-01-20T18:22:52.667Z,14.40
2023-01-20T18:25:20.463Z,13.30
2023-01-20T18:27:48.609Z,14.37
2023-01-20T18:30:17.380Z,17.07
2023-01-20T18:32:47.033Z,14.10
2023-01-20T18:35:14.769Z,13.93
2023-01-20T18:37:42.545Z,13.77
2023-01-20T18:40:11.988Z,15.20
2023-01-20T18:42:39.878Z,14.77
2023-01-20T18:45:08.891Z,14.77
2023-01-20T18:47:36.648Z,13.57
2023-01-20T18:50:06.741Z,14.20
2023-01-20T18:52:34.618Z,14.20
2023-01-20T18:55:02.405Z,14.20
2023-01-20T18:57:30.205Z,13.07
2023-01-20T18:59:58.010Z,15.27
2023-01-20T19:02:26.818Z,14.43
2023-01-20T19:04:54.617Z,13.83
2023-01-20T19:07:23.822Z,13.57
2023-01-20T19:09:51.978Z,13.77
2023-01-20T19:12:19.800Z,14.50
2023-01-20T19:14:47.633Z,14.90
2023-01-20T19:17:15.444Z,14.63
2023-01-20T19:19:46.549Z,15.53
2023-01-20T19:22:14.355Z,16.60
2023-01-20T19:24:43.513Z,17.37
2023-01-20T19:27:11.281Z,18.23
2023-01-20T19:29:41.019Z,18.90
2023-01-20T19:32:09.071Z,19.33
2023-01-20T19:34:36.959Z,19.13
2023-01-20T19:37:04.710Z,18.57
2023-01-20T19:39:32.573Z,19.47
2023-01-20T19:42:01.754Z,31.60
2023-01-20T19:44:29.782Z,19.80
2023-01-20T19:47:02.500Z,21.60
2023-01-20T19:49:30.212Z,21.43
2023-01-20T19:51:59.624Z,21.07
2023-01-20T19:54:28.568Z,22.90
2023-01-20T19:56:56.304Z,22.60
2023-01-20T19:59:25.432Z,23.13
2023-01-20T20:01:53.429Z,22.70
2023-01-20T20:04:23.946Z,23.03
2023-01-20T20:06:51.787Z,23.03
2023-01-20T20:09:23.185Z,22.60
2023-01-20T20:11:51.354Z,24.40
2023-01-20T20:14:20.528Z,24.90
2023-01-20T20:16:50.246Z,23.80
2023-01-20T20:19:19.994Z,24.60
2023-01-20T20:21:47.986Z,25.83
2023-01-20T20:24:17.125Z,25.63
2023-01-20T20:26:46.225Z,25.90
2023-01-20T20:29:16.152Z,26.60
2023-01-20T20:31:44.248Z,24.47
2023-01-20T20:34:15.502Z,25.53
2023-01-20T20:36:43.395Z,26.43
2023-01-20T20:39:14.340Z,27.23
2023-01-20T20:41:42.354Z,27.97
2023-01-20T20:44:11.084Z,27.33
2023-01-20T20:46:39.162Z,26.67
2023-01-20T20:49:07.016Z,28.23
2023-01-20T20:51:36.156Z,28.33
2023-01-20T20:54:04.365Z,27.30
2023-01-20T20:56:32.736Z,28.03
2023-01-20T20:59:03.471Z,28.63
2023-01-20T21:01:33.826Z,28.10
2023-01-20T21:04:01.856Z,29.13
2023-01-20T21:06:30.116Z,29.93
2023-01-20T21:08:59.660Z,29.40
2023-01-20T21:11:27.806Z,28.23
2023-01-20T21:13:55.763Z,27.40
2023-01-20T21:16:25.062Z,28.90
2023-01-20T21:18:56.154Z,27.67
2023-01-20T21:21:25.103Z,27.60
2023-01-20T21:23:54.566Z,28.20
2023-01-20T21:26:25.187Z,28.10
2023-01-20T21:28:53.904Z,27.50
2023-01-20T21:31:26.364Z,27.50
2023-01-20T21:33:56.948Z,25.90
2023-01-20T21:36:25.574Z,26.70
2023-01-20T21:38:53.528Z,27.23
2023-01-20T21:41:21.458Z,28.70
2023-01-20T21:44:08.670Z,29.70
2023-01-20T21:46:39.797Z,28.77
2023-01-20T21:49:25.915Z,29.23
2023-01-20T21:52:11.300Z,28.33
2023-01-20T21:54:40.498Z,30.13
2023-01-20T21:57:08.323Z,28.03
2023-01-20T21:59:37.544Z,28.90
2023-01-20T22:02:05.584Z,27.37
2023-01-20T22:04:33.799Z,28.80
2023-01-20T22:07:01.701Z,28.87
2023-01-20T22:09:29.565Z,27.17
2023-01-20T22:11:57.375Z,28.83
2023-01-20T22:14:25.287Z,27.17
2023-01-20T22:16:54.446Z,28.77
2023-01-20T22:19:22.270Z,27.27
2023-01-20T22:21:50.035Z,26.27
2023-01-20T22:24:18.211Z,26.83
2023-01-20T22:26:47.194Z,27.73
2023-01-20T22:29:15.185Z,25.90
2023-01-20T22:31:43.130Z,28.23
2023-01-20T22:34:12.363Z,27.83
2023-01-20T22:36:40.611Z,28.07
2023-01-20T22:39:08.658Z,27.33
2023-01-20T22:41:36.413Z,28.03
2023-01-20T22:44:04.218Z,28.17
2023-01-20T22:46:32.174Z,29.07
2023-01-20T22:49:01.425Z,28.33
2023-01-20T22:51:31.329Z,27.57
2023-01-20T22:54:00.994Z,28.13
2023-01-20T22:56:30.642Z,26.87
2023-01-20T22:58:59.243Z,28.50
2023-01-20T23:01:28.821Z,27.37
2023-01-20T23:03:58.259Z,29.53
2023-01-20T23:06:27.758Z,28.37
2023-01-20T23:08:56.950Z,28.73
2023-01-20T23:11:25.046Z,29.07
2023-01-20T23:13:53.782Z,29.23
2023-01-20T23:16:23.601Z,28.50
2023-01-20T23:18:52.394Z,28.80
2023-01-20T23:21:21.011Z,29.07
2023-01-20T23:23:54.081Z,27.43
2023-01-20T23:26:24.862Z,27.77
2023-01-20T23:28:53.886Z,28.70
2023-01-20T23:31:23.479Z,29.67
2023-01-20T23:33:52.143Z,29.00
2023-01-20T23:36:23.723Z,28.57
2023-01-20T23:38:51.740Z,27.87
2023-01-20T23:41:19.924Z,27.90
2023-01-20T23:43:49.054Z,29.73
2023-01-20T23:46:16.963Z,28.00
2023-01-20T23:48:46.196Z,29.53
2023-01-20T23:51:14.202Z,29.77
2023-01-20T23:53:42.353Z,31.17
2023-01-20T23:56:13.414Z,30.37
2023-01-20T23:58:41.682Z,29.50
